createdAt,value
2019-01-19T00:05:15.139Z,11.87
2019-01-19T00:11:09.459Z,7.67
2019-01-19T00:16:40.058Z,14.23
2019-01-19T00:22:07.976Z,15.87
2019-01-19T00:27:26.873Z,22.93
2019-01-19T00:32:53.877Z,8.33
2019-01-19T00:38:28.149Z,13.80
2019-01-19T00:43:53.622Z,8.87
2019-01-19T00:49:23.897Z,16.13
2019-01-19T00:54:41.145Z,16.57
2019-01-19T00:59:49.182Z,9.80
2019-01-19T01:05:10.666Z,16.57
2019-01-19T01:10:54.416Z,14.27
2019-01-19T01:16:49.222Z,16.87
2019-01-19T01:22:09.967Z,15.50
2019-01-19T01:27:42.034Z,9.87
2019-01-19T01:33:24.519Z,11.73
2019-01-19T01:39:08.393Z,11.97
2019-01-19T01:44:27.186Z,12.23
2019-01-19T01:50:03.366Z,15.20
2019-01-19T01:55:18.668Z,9.40
2019-01-19T02:00:42.588Z,12.27
2019-01-19T02:06:33.944Z,21.40
2019-01-19T02:11:59.862Z,9.73
2019-01-19T02:17:44.218Z,19.77
2019-01-19T02:23:31.360Z,16.20
2019-01-19T02:28:59.841Z,12.13
2019-01-19T02:34:40.669Z,16.53
2019-01-19T02:40:16.053Z,7.83
2019-01-19T02:46:07.506Z,13.20
2019-01-19T02:51:52.375Z,13.97
2019-01-19T02:57:24.396Z,11.70
2019-01-19T03:03:05.744Z,16.87
2019-01-19T03:08:58.796Z,14.07
2019-01-19T03:14:47.863Z,9.67
2019-01-19T03:20:20.809Z,13.67
2019-01-19T03:25:58.999Z,10.97
2019-01-19T03:31:50.164Z,20.47
2019-01-19T03:37:37.333Z,8.83
2019-01-19T03:43:15.382Z,22.60
2019-01-19T03:48:27.046Z,17.20
2019-01-19T03:54:24.308Z,16.67
2019-01-19T04:00:24.495Z,17.77
2019-01-19T04:05:54.185Z,10.87
2019-01-19T04:11:42.679Z,19.07
2019-01-19T04:17:37.136Z,13.03
2019-01-19T04:22:47.815Z,12.50
2019-01-19T04:27:52.414Z,15.67
2019-01-19T04:32:56.936Z,14.77
2019-01-19T04:38:01.530Z,14.77
2019-01-19T04:43:06.117Z,15.90
2019-01-19T04:48:10.633Z,14.70
2019-01-19T04:53:15.133Z,16.47
2019-01-19T04:58:19.744Z,19.57
2019-01-19T05:03:24.315Z,14.20
2019-01-19T05:08:28.874Z,19.90
2019-01-19T05:13:33.343Z,22.47
2019-01-19T05:18:37.872Z,16.90
2019-01-19T05:23:42.828Z,12.43
2019-01-19T05:28:47.364Z,15.77
2019-01-19T05:33:51.959Z,16.67
2019-01-19T05:38:56.523Z,15.60
2019-01-19T05:44:01.044Z,25.23
2019-01-19T05:49:05.728Z,17.53
2019-01-19T05:54:10.333Z,18.30
2019-01-19T05:59:14.890Z,17.47
2019-01-19T06:04:19.389Z,17.23
2019-01-19T06:09:23.951Z,18.13
2019-01-19T06:14:28.442Z,24.17
2019-01-19T06:19:33.156Z,22.07
2019-01-19T06:24:37.652Z,17.57
2019-01-19T06:29:42.288Z,15.07
2019-01-19T06:34:46.844Z,19.80
2019-01-19T06:39:51.343Z,23.33
2019-01-19T06:44:55.859Z,17.57
2019-01-19T06:50:00.406Z,20.83
2019-01-19T06:55:05.246Z,14.80
2019-01-19T07:00:12.185Z,18.33
2019-01-19T07:05:16.739Z,15.47
2019-01-19T07:10:22.612Z,22.65
2019-01-19T07:15:27.117Z,21.93
2019-01-19T07:20:31.808Z,18.53
2019-01-19T07:25:36.525Z,25.87
2019-01-19T07:30:41.127Z,19.63
2019-01-19T07:35:45.620Z,18.83
2019-01-19T07:40:50.167Z,21.47
2019-01-19T07:45:54.733Z,27.05
2019-01-19T07:50:59.261Z,22.87
2019-01-19T07:56:03.851Z,21.57
2019-01-19T08:01:08.464Z,22.75
2019-01-19T08:06:13.053Z,23.63
2019-01-19T08:11:17.677Z,26.57
2019-01-19T08:16:22.254Z,22.70
2019-01-19T08:21:26.832Z,20.40
2019-01-19T08:26:31.460Z,23.67
2019-01-19T08:31:35.964Z,21.43
2019-01-19T08:36:40.648Z,28.15
2019-01-19T08:41:45.160Z,24.92
2019-01-19T08:46:49.674Z,20.23
2019-01-19T08:51:54.235Z,18.50
2019-01-19T08:56:58.816Z,30.03
2019-01-19T09:02:03.421Z,27.90
2019-01-19T09:07:08.000Z,22.70
2019-01-19T09:12:12.575Z,20.80
2019-01-19T09:17:17.147Z,23.03
2019-01-19T09:22:21.680Z,33.20
2019-01-19T09:27:26.243Z,16.53
2019-01-19T09:32:31.095Z,27.47
2019-01-19T09:37:40.807Z,29.87
2019-01-19T09:42:41.949Z,22.47
2019-01-19T09:47:46.456Z,23.17
2019-01-19T09:52:51.170Z,23.53
2019-01-19T09:57:55.771Z,24.47
2019-01-19T10:03:00.464Z,24.80
2019-01-19T10:08:05.173Z,22.93
2019-01-19T10:13:09.760Z,22.50
2019-01-19T10:18:14.325Z,19.90
2019-01-19T10:23:18.936Z,24.07
2019-01-19T10:28:23.525Z,16.43
2019-01-19T10:33:28.135Z,20.50
2019-01-19T10:38:32.709Z,25.30
2019-01-19T10:43:37.214Z,22.67
2019-01-19T10:48:41.810Z,19.83
2019-01-19T10:53:46.359Z,17.13
2019-01-19T10:58:50.961Z,23.23
2019-01-19T11:03:55.558Z,20.80
2019-01-19T11:09:00.266Z,31.83
2019-01-19T11:14:04.846Z,21.43
2019-01-19T11:19:09.384Z,27.87
2019-01-19T11:24:14.006Z,26.43
2019-01-19T11:29:18.553Z,25.37
2019-01-19T11:34:23.122Z,19.67
2019-01-19T11:39:27.724Z,23.17
2019-01-19T11:44:32.309Z,23.50
2019-01-19T11:49:36.943Z,27.50
2019-01-19T11:54:41.761Z,20.97
2019-01-19T11:59:46.341Z,15.97
2019-01-19T12:04:50.965Z,22.70
2019-01-19T12:09:55.564Z,17.33
2019-01-19T12:15:00.258Z,19.70
2019-01-19T12:20:07.145Z,17.83
2019-01-19T12:25:13.385Z,22.53
2019-01-19T12:30:20.155Z,18.47
2019-01-19T12:35:24.798Z,21.97
2019-01-19T12:40:29.739Z,21.83
2019-01-19T12:45:37.912Z,18.63
2019-01-19T12:50:42.576Z,23.17
2019-01-19T12:55:47.432Z,21.97
2019-01-19T13:00:52.004Z,23.93
2019-01-19T13:06:38.591Z,20.40
2019-01-19T13:12:19.202Z,22.40
2019-01-19T13:18:03.250Z,22.53
2019-01-19T13:23:28.710Z,24.17
2019-01-19T13:29:11.415Z,21.67
2019-01-19T13:34:55.873Z,25.23
2019-01-19T13:40:50.296Z,19.60
2019-01-19T13:46:15.848Z,20.30
2019-01-19T13:51:47.760Z,24.73
2019-01-19T13:57:44.365Z,24.90
2019-01-19T14:03:25.727Z,28.07
2019-01-19T14:09:22.818Z,21.97
2019-01-19T14:14:47.785Z,17.17
2019-01-19T14:20:19.326Z,20.50
2019-01-19T14:26:02.346Z,22.37
2019-01-19T14:31:53.821Z,17.50
2019-01-19T14:37:36.196Z,23.77
2019-01-19T14:43:09.890Z,27.60
2019-01-19T14:48:39.993Z,25.17
2019-01-19T14:54:23.271Z,15.20
2019-01-19T14:59:47.477Z,19.30
2019-01-19T15:04:56.715Z,22.70
2019-01-19T15:10:19.318Z,21.27
2019-01-19T15:15:50.208Z,28.47
2019-01-19T15:21:16.773Z,29.60
2019-01-19T15:27:06.695Z,30.60
2019-01-19T15:32:52.404Z,28.83
2019-01-19T15:38:19.353Z,23.83
2019-01-19T15:44:00.621Z,31.15
2019-01-19T15:49:26.082Z,37.80
2019-01-19T15:55:07.138Z,38.78
2019-01-19T16:00:48.630Z,38.33
2019-01-19T16:06:34.481Z,46.00
2019-01-19T16:12:21.906Z,38.28
2019-01-19T16:18:08.608Z,38.33
2019-01-19T16:23:31.549Z,37.38
2019-01-19T16:29:03.199Z,37.88
2019-01-19T16:34:27.123Z,39.27
2019-01-19T16:40:00.302Z,39.13
2019-01-19T16:45:37.695Z,31.50
2019-01-19T16:51:19.009Z,39.42
2019-01-19T16:57:15.201Z,37.03
2019-01-19T17:03:00.246Z,34.13
2019-01-19T17:08:39.293Z,41.67
2019-01-19T17:14:27.748Z,35.17
2019-01-19T17:20:16.976Z,44.58
2019-01-19T17:26:04.065Z,33.33
2019-01-19T17:31:32.230Z,42.33
2019-01-19T17:36:48.488Z,36.37
2019-01-19T17:42:30.491Z,37.17
2019-01-19T17:48:02.837Z,39.50
2019-01-19T17:54:00.087Z,33.03
2019-01-19T17:59:45.077Z,43.60
2019-01-19T18:05:30.201Z,44.42
2019-01-19T18:10:58.705Z,44.38
2019-01-19T18:16:57.657Z,40.03
2019-01-19T18:23:01.348Z,37.45
2019-01-19T18:28:28.237Z,32.33
2019-01-19T18:34:22.359Z,31.77
2019-01-19T18:40:04.804Z,33.18
2019-01-19T18:45:49.434Z,18.33
2019-01-19T18:51:26.844Z,22.43
2019-01-19T18:57:24.054Z,22.77
2019-01-19T19:03:05.232Z,26.40
2019-01-19T19:08:35.387Z,21.75
2019-01-19T19:14:17.365Z,21.37
2019-01-19T19:20:01.185Z,17.37
2019-01-19T19:25:50.099Z,24.07
2019-01-19T19:31:17.397Z,24.30
2019-01-19T19:36:48.668Z,23.27
2019-01-19T19:42:38.427Z,20.32
2019-01-19T19:48:28.688Z,23.07
2019-01-19T19:53:33.301Z,20.20
2019-01-19T19:58:37.982Z,25.17
2019-01-19T20:03:42.642Z,20.00
2019-01-19T20:08:47.363Z,22.93
2019-01-19T20:13:52.054Z,21.53
2019-01-19T20:18:56.699Z,18.23
2019-01-19T20:24:01.436Z,27.87
2019-01-19T20:29:06.210Z,17.93
2019-01-19T20:34:10.814Z,27.17
2019-01-19T20:39:15.412Z,19.87
2019-01-19T20:44:20.099Z,30.57
2019-01-19T20:49:24.751Z,15.23
2019-01-19T20:54:29.373Z,16.63
2019-01-19T20:59:33.970Z,16.60
2019-01-19T21:04:38.625Z,20.20
2019-01-19T21:09:43.249Z,26.53
2019-01-19T21:14:47.805Z,21.60
2019-01-19T21:19:52.404Z,24.50
2019-01-19T21:24:56.968Z,20.67
2019-01-19T21:30:01.524Z,18.27
2019-01-19T21:35:07.659Z,24.40
2019-01-19T21:40:12.609Z,26.23
2019-01-19T21:45:18.979Z,20.57
2019-01-19T21:50:23.632Z,19.30
2019-01-19T21:55:28.239Z,21.00
2019-01-19T22:00:32.830Z,20.03
2019-01-19T22:05:37.456Z,23.37
2019-01-19T22:10:46.245Z,25.73
2019-01-19T22:15:48.642Z,24.67
2019-01-19T22:20:53.302Z,20.13
2019-01-19T22:25:57.933Z,25.60
2019-01-19T22:31:02.524Z,19.53
2019-01-19T22:36:07.482Z,22.97
2019-01-19T22:41:12.787Z,24.83
2019-01-19T22:46:17.411Z,28.47
2019-01-19T22:51:21.951Z,29.30
2019-01-19T22:56:26.508Z,28.83
2019-01-19T23:01:52.652Z,27.37
2019-01-19T23:06:57.267Z,28.50
2019-01-19T23:12:01.903Z,31.57
2019-01-19T23:17:06.732Z,38.17
2019-01-19T23:22:11.391Z,43.17
2019-01-19T23:27:15.982Z,32.20
2019-01-19T23:32:20.557Z,34.77
2019-01-19T23:37:25.208Z,35.10
2019-01-19T23:42:29.825Z,38.43
2019-01-19T23:47:34.455Z,33.43
2019-01-19T23:52:39.090Z,30.60
2019-01-19T23:57:43.697Z,35.10
